Time;durP1;ratioP1;P1;durP2;ratioP2;P2;SDS_P1;SDS_P2;PMS_P1;PMS_P2;Temp;Humidity;BMP_temperature;BMP_pressure;BME280_temperature;BME280_humidity;BME280_pressure;Samples;Min_cycle;Max_cycle;Signal;HPM_P1;HPM_P2
2021/12/24 00:01:08;;;;;;;47.33;26.73;;;;;;;-0.85;84.37;99197.70;1667989;84;21053;-77
2021/12/24 00:03:34;;;;;;;49.98;27.82;;;;;;;-0.83;84.40;99198.55;1669268;84;21064;-77
2021/12/24 00:06:03;;;;;;;51.50;27.35;;;;;;;-0.83;84.40;99185.87;1683821;84;20954;-77
2021/12/24 00:08:30;;;;;;;50.78;28.35;;;;;;;-0.81;84.40;99187.15;1693104;84;20907;-78
2021/12/24 00:10:59;;;;;;;50.60;28.80;;;;;;;-0.81;84.40;99190.53;1686708;84;21563;-77
2021/12/24 00:13:27;;;;;;;52.53;29.72;;;;;;;-0.79;84.42;99185.47;1671539;82;20985;-77
2021/12/24 00:16:05;;;;;;;51.35;28.95;;;;;;;-0.79;84.42;99196.47;1672469;84;21094;-78
2021/12/24 00:18:36;;;;;;;52.95;28.75;;;;;;;-0.78;84.45;99187.17;1653948;85;20981;-77
2021/12/24 00:37:10;;;;;;;49.77;28.17;;;;;;;-0.70;84.54;99167.34;1648101;87;20953;-76
2021/12/24 00:39:44;;;;;;;50.83;28.77;;;;;;;-0.69;84.53;99171.58;1676252;84;20964;-77
2021/12/24 00:42:05;;;;;;;48.52;27.95;;;;;;;-0.69;84.54;99170.73;1668722;84;20894;-77
2021/12/24 00:44:31;;;;;;;44.88;26.37;;;;;;;-0.67;84.59;99163.97;1666913;86;20914;-77
2021/12/24 00:46:57;;;;;;;50.52;28.90;;;;;;;-0.65;84.59;99151.30;1650598;84;20922;-77
2021/12/24 00:49:23;;;;;;;47.13;26.07;;;;;;;-0.64;84.60;99146.64;1669455;85;20925;-77
2021/12/24 00:52:18;;;;;;;37.15;19.95;;;;;;;-0.63;84.61;99149.61;1671662;85;21062;-77
2021/12/24 00:57:19;;;;;;;47.53;26.48;;;;;;;-0.61;84.66;99142.86;1657284;85;20129;-77
2021/12/24 00:59:45;;;;;;;46.85;27.25;;;;;;;-0.61;84.59;99139.90;1648956;87;20954;-77
2021/12/24 01:02:12;;;;;;;47.20;26.05;;;;;;;-0.61;84.59;99139.90;1661030;85;21008;-77
2021/12/24 01:04:38;;;;;;;44.38;26.73;;;;;;;-0.60;84.65;99139.05;1653882;86;20954;-77
2021/12/24 01:07:04;;;;;;;46.45;26.27;;;;;;;-0.59;84.68;99141.17;1622992;87;20959;-77
2021/12/24 01:09:31;;;;;;;47.60;27.87;;;;;;;-0.58;84.70;99136.10;1611607;88;20992;-77
2021/12/24 01:11:57;;;;;;;42.70;25.40;;;;;;;-0.57;84.69;99132.72;1666923;85;20979;-77
2021/12/24 01:14:24;;;;;;;44.10;25.55;;;;;;;-0.56;84.71;99133.57;1629018;87;21005;-77
2021/12/24 01:17:02;;;;;;;46.83;26.85;;;;;;;-0.55;84.76;99131.46;1632639;85;21021;-77
2021/12/24 01:19:23;;;;;;;41.63;24.75;;;;;;;-0.54;84.75;99135.70;1655682;84;21576;-77
2021/12/24 01:24:21;;;;;;;44.10;26.62;;;;;;;-0.52;84.76;99124.67;1658504;85;20989;-77
2021/12/24 01:27:11;;;;;;;47.17;27.25;;;;;;;-0.50;84.78;99119.61;1639002;84;21009;-77
2021/12/24 01:42:46;;;;;;;41.02;25.43;;;;;;;-0.42;84.86;99094.67;1612601;88;21604;-77
2021/12/24 01:45:27;;;;;;;41.18;25.25;;;;;;;-0.40;84.87;99110.77;1612659;87;20937;-77
2021/12/24 01:47:58;;;;;;;43.17;24.57;;;;;;;-0.39;84.87;99118.81;1621066;87;21582;-77
2021/12/24 01:50:28;;;;;;;41.20;24.90;;;;;;;-0.37;84.89;99105.70;1588632;88;21578;-77
2021/12/24 01:52:55;;;;;;;42.25;23.77;;;;;;;-0.35;84.92;99098.94;1590052;89;21036;-77
2021/12/24 01:55:23;;;;;;;41.37;24.15;;;;;;;-0.35;84.92;99095.13;1622794;87;21509;-77
2021/12/24 01:57:50;;;;;;;39.92;23.65;;;;;;;-0.34;84.94;99087.09;1676381;84;21423;-77
2021/12/24 02:00:24;;;;;;;38.95;23.47;;;;;;;-0.32;84.96;99099.78;1660053;85;21482;-77
2021/12/24 02:02:50;;;;;;;38.02;23.20;;;;;;;-0.31;84.91;99110.38;1625515;87;21493;-77
2021/12/24 02:05:18;;;;;;;41.30;24.60;;;;;;;-0.30;84.99;99110.38;1623324;87;21566;-77
2021/12/24 02:07:44;;;;;;;38.38;23.67;;;;;;;-0.29;84.99;99101.07;1607132;87;21171;-77
2021/12/24 02:10:13;;;;;;;;;;;;;;;-0.26;85.03;99091.77;1625984;87;21033;-77
2021/12/24 02:12:39;;;;;;;35.88;21.50;;;;;;;-0.24;85.09;99091.34;1649064;86;20425;-78
2021/12/24 02:15:13;;;;;;;33.08;20.60;;;;;;;-0.23;85.04;99081.62;901756;83;10000193;-78
2021/12/24 02:28:40;;;;;;;33.53;20.37;;;;;;;-0.16;85.11;99083.33;1621075;88;20929;-77
2021/12/24 02:31:09;;;;;;;;;;;;;;;-0.15;85.10;99072.75;1614469;87;20971;-77
2021/12/24 02:33:35;;;;;;;31.37;18.73;;;;;;;-0.14;85.23;99070.21;1625661;87;20115;-77
2021/12/24 02:36:01;;;;;;;27.25;18.32;;;;;;;-0.12;85.19;99076.14;1609252;88;21623;-76
2021/12/24 02:38:28;;;;;;;28.65;18.75;;;;;;;-0.12;85.16;99067.25;1609285;89;20932;-76
2021/12/24 02:40:54;;;;;;;24.92;18.17;;;;;;;-0.10;85.15;99053.28;1609240;88;21535;-76
2021/12/24 02:43:23;;;;;;;26.85;19.07;;;;;;;-0.09;85.15;99061.33;1610297;88;20951;-77
2021/12/24 02:45:52;;;;;;;27.15;18.20;;;;;;;-0.08;85.19;99075.30;1610827;87;21527;-77
2021/12/24 02:56:26;;;;;;;24.85;16.50;;;;;;;-0.03;85.23;99070.23;1618771;88;21040;-77
2021/12/24 02:58:52;;;;;;;24.47;16.60;;;;;;;-0.02;85.21;99057.53;1617171;87;21056;-77
2021/12/24 03:01:23;;;;;;;23.22;17.00;;;;;;;0.00;85.22;99057.08;1608082;87;20967;-77
2021/12/24 03:03:51;;;;;;;23.52;16.75;;;;;;;0.00;85.25;99049.45;1665704;84;21474;-77
2021/12/24 03:06:20;;;;;;;24.30;16.60;;;;;;;0.02;85.24;99054.54;1654431;85;20967;-77
2021/12/24 03:08:47;;;;;;;22.55;15.78;;;;;;;0.03;85.25;99053.69;1591893;89;21437;-77
2021/12/24 03:11:13;;;;;;;24.05;17.00;;;;;;;0.05;85.23;99049.88;1593109;87;20918;-77
2021/12/24 03:13:41;;;;;;;21.62;16.30;;;;;;;0.04;85.25;99057.08;1670538;85;21094;-77
2021/12/24 03:16:08;;;;;;;26.75;16.80;;;;;;;0.05;85.24;99063.86;1683180;84;20931;-77
2021/12/24 03:18:37;;;;;;;22.75;15.88;;;;;;;0.04;85.24;99054.12;1620466;87;21570;-77
2021/12/24 03:21:18;;;;;;;21.15;15.45;;;;;;;0.06;85.25;99045.23;1615917;87;20971;-77
2021/12/24 03:26:26;;;;;;;21.35;16.02;;;;;;;0.08;85.31;99040.57;1661253;84;21086;-77
2021/12/24 03:28:53;;;;;;;22.02;16.23;;;;;;;0.08;85.28;99043.53;1640261;86;21041;-77
2021/12/24 03:31:19;;;;;;;24.40;16.00;;;;;;;0.08;85.31;99039.72;1660894;86;20974;-77
2021/12/24 03:33:46;;;;;;;22.27;15.80;;;;;;;0.10;85.34;99036.77;1659675;86;20970;-77
2021/12/24 03:36:13;;;;;;;21.37;15.43;;;;;;;0.10;85.30;99039.30;1661352;84;21325;-76
2021/12/24 03:38:39;;;;;;;18.85;14.53;;;;;;;0.10;85.31;99028.72;1660594;85;21029;-76
2021/12/24 03:41:05;;;;;;;20.72;14.90;;;;;;;0.10;85.33;99026.17;1670210;85;21379;-77
2021/12/24 03:43:32;;;;;;;20.90;15.32;;;;;;;0.11;85.36;99021.52;1660966;86;21057;-77
2021/12/24 03:46:06;;;;;;;20.90;14.98;;;;;;;0.12;85.34;99018.55;1672867;84;20914;-77
2021/12/24 03:48:42;;;;;;;20.10;14.55;;;;;;;0.14;85.38;99017.70;1681546;84;20915;-77
2021/12/24 03:51:04;;;;;;;19.62;14.87;;;;;;;0.14;85.37;99024.48;1681474;84;20959;-77
2021/12/24 03:56:07;;;;;;;21.70;15.58;;;;;;;0.15;85.36;99021.94;1664382;84;20942;-77
2021/12/24 03:58:33;;;;;;;20.08;14.65;;;;;;;0.16;85.39;99024.06;1659145;85;20903;-77
2021/12/24 04:01:00;;;;;;;20.90;13.98;;;;;;;0.17;85.44;99025.33;1662644;86;20906;-77
2021/12/24 04:03:26;;;;;;;20.17;15.03;;;;;;;0.18;85.43;99020.67;1663501;85;27985;-77
2021/12/24 04:05:52;;;;;;;19.32;15.20;;;;;;;0.19;85.42;99017.70;1669477;85;26981;-77
2021/12/24 04:08:18;;;;;;;18.65;14.70;;;;;;;0.20;85.42;99025.33;1620785;87;20966;-77
2021/12/24 04:10:44;;;;;;;20.72;14.58;;;;;;;0.21;85.44;99024.91;1620709;88;20968;-77
2021/12/24 04:13:13;;;;;;;22.35;16.20;;;;;;;0.22;85.44;99026.60;1618931;87;20976;-77
2021/12/24 04:15:40;;;;;;;19.77;15.18;;;;;;;0.22;85.44;99032.53;1612478;87;21150;-78
2021/12/24 04:18:14;;;;;;;19.37;15.32;;;;;;;0.23;85.42;99030.84;1662426;86;20958;-78
2021/12/24 04:26:03;;;;;;;18.55;14.35;;;;;;;0.24;85.42;99026.18;1681504;84;21110;-77
2021/12/24 04:28:29;;;;;;;18.07;14.00;;;;;;;0.23;85.44;99018.13;1668692;84;20891;-77
2021/12/24 04:30:56;;;;;;;20.17;15.48;;;;;;;0.23;85.45;99021.52;1680915;85;21620;-77
2021/12/24 04:33:31;;;;;;;18.30;14.75;;;;;;;0.23;85.46;99026.60;1671067;84;21037;-77
2021/12/24 04:36:00;;;;;;;21.80;16.30;;;;;;;0.24;85.48;99021.09;1657889;85;20986;-77
2021/12/24 04:38:35;;;;;;;20.02;14.28;;;;;;;0.24;85.48;99018.55;1660149;85;21133;-78
2021/12/24 04:52:00;;;;;;;19.85;14.75;;;;;;;0.27;85.54;99028.30;1660400;84;20907;-77
2021/12/24 05:02:58;;;;;;;19.12;14.58;;;;;;;0.29;85.59;99013.05;1635688;86;20949;-77
2021/12/24 05:05:24;;;;;;;17.87;14.20;;;;;;;0.29;85.58;99002.87;1659726;85;20928;-77
2021/12/24 05:10:28;;;;;;;19.70;15.23;;;;;;;0.29;85.61;99000.34;1629748;86;20917;-77
2021/12/24 05:12:51;;;;;;;19.10;14.70;;;;;;;0.29;85.59;99003.72;1646132;86;20926;-77
2021/12/24 05:15:18;;;;;;;21.23;14.63;;;;;;;0.29;85.62;99009.23;1656979;86;20951;-77
2021/12/24 05:18:06;;;;;;;;;;;;;;;0.29;85.63;99004.99;1660709;85;20908;-77
2021/12/24 05:23:02;;;;;;;18.73;14.28;;;;;;;0.29;85.61;98998.64;1629172;87;20918;-77
2021/12/24 05:25:28;;;;;;;18.10;14.43;;;;;;;0.29;85.62;99000.34;1658729;86;22460;-77
2021/12/24 05:27:57;;;;;;;19.30;14.53;;;;;;;0.28;85.61;98998.64;1641311;86;20942;-77
2021/12/24 05:30:24;;;;;;;18.80;14.70;;;;;;;0.28;85.66;98984.66;1629365;86;21055;-77
2021/12/24 05:32:50;;;;;;;17.30;13.85;;;;;;;0.28;85.64;98977.03;1653151;85;21070;-77
2021/12/24 05:35:16;;;;;;;19.62;15.00;;;;;;;0.27;85.67;98974.92;1657499;85;21085;-77
2021/12/24 05:37:42;;;;;;;18.50;14.78;;;;;;;0.28;85.64;98969.41;1664913;84;21701;-77
2021/12/24 05:40:10;;;;;;;19.62;14.60;;;;;;;0.28;85.65;98970.25;1663243;85;21042;-77
2021/12/24 05:42:36;;;;;;;17.75;14.35;;;;;;;0.28;85.66;98974.49;1658446;86;20922;-77
2021/12/24 05:45:07;;;;;;;19.05;14.63;;;;;;;0.29;85.67;98975.77;1658455;86;20911;-78
2021/12/24 05:47:31;;;;;;;18.15;14.28;;;;;;;0.29;85.68;98975.77;1661130;85;21527;-77
2021/12/24 05:49:59;;;;;;;20.82;15.58;;;;;;;0.29;85.65;98968.56;1676978;85;21053;-77
2021/12/24 05:52:25;;;;;;;18.45;15.05;;;;;;;0.30;85.69;98967.71;1674882;85;20911;-77
2021/12/24 05:54:51;;;;;;;18.48;14.28;;;;;;;0.30;85.71;98972.37;1670490;85;20900;-77
2021/12/24 05:57:17;;;;;;;19.90;15.30;;;;;;;0.31;85.71;98964.32;1676947;85;20963;-77
2021/12/24 05:59:44;;;;;;;17.70;14.20;;;;;;;0.32;85.73;98967.28;1676648;84;20883;-77
2021/12/24 06:02:10;;;;;;;20.00;15.03;;;;;;;0.32;85.75;98952.88;1664892;85;21077;-77
2021/12/24 06:04:36;;;;;;;19.20;14.55;;;;;;;0.32;85.75;98956.69;1660992;84;20990;-77
2021/12/24 06:07:02;;;;;;;21.82;16.62;;;;;;;0.34;85.76;98957.96;1661758;84;21062;-77
2021/12/24 06:09:28;;;;;;;21.10;16.30;;;;;;;0.33;85.75;98971.09;1662063;84;21010;-77
2021/12/24 06:11:54;;;;;;;23.15;17.23;;;;;;;0.34;85.75;98984.66;1671189;84;21671;-77
2021/12/24 06:14:20;;;;;;;22.67;16.50;;;;;;;0.33;85.76;98977.45;1669464;84;20911;-77
2021/12/24 06:16:58;;;;;;;22.98;17.17;;;;;;;0.33;85.77;98975.33;1657996;85;20997;-77
2021/12/24 06:19:17;;;;;;;23.55;17.02;;;;;;;0.34;85.80;98984.66;1650071;86;21086;-77
2021/12/24 06:21:44;;;;;;;23.32;17.87;;;;;;;0.35;85.84;98979.14;1592166;89;20985;-77
2021/12/24 06:24:12;;;;;;;22.93;17.20;;;;;;;0.36;85.82;98968.12;1605631;87;21106;-77
2021/12/24 06:26:39;;;;;;;21.45;16.10;;;;;;;0.37;85.82;98974.91;1659733;86;21050;-77
2021/12/24 06:29:05;;;;;;;;;;;;;;;0.36;85.84;98974.06;1662179;86;21134;-77
2021/12/24 06:31:31;;;;;;;17.98;13.55;;;;;;;0.37;85.89;98979.56;1665231;85;20218;-77
2021/12/24 06:33:57;;;;;;;19.40;14.60;;;;;;;0.37;85.84;98985.08;1674031;85;21123;-77
2021/12/24 06:36:23;;;;;;;;;;;;;;;0.37;85.86;98973.63;1680704;84;21029;-77
2021/12/24 06:38:49;;;;;;;19.65;14.87;;;;;;;0.37;85.93;98977.02;1655019;85;20523;-77
2021/12/24 06:41:16;;;;;;;19.17;14.45;;;;;;;0.37;85.92;98991.01;1619963;87;21087;-78
2021/12/24 06:43:41;;;;;;;20.72;14.63;;;;;;;0.39;85.90;98988.46;1608525;87;21095;-77
2021/12/24 06:46:11;;;;;;;18.80;14.63;;;;;;;0.37;85.91;98988.46;1603647;88;20944;-77
2021/12/24 06:48:35;;;;;;;18.95;14.30;;;;;;;0.39;85.92;98997.36;1660906;86;21393;-77
2021/12/24 06:51:01;;;;;;;27.95;17.23;;;;;;;0.38;85.91;99009.23;1660903;85;21351;-77
2021/12/24 06:53:28;;;;;;;26.42;18.07;;;;;;;0.39;85.93;99006.26;1660725;85;20994;-78
2021/12/24 06:55:54;;;;;;;23.85;16.97;;;;;;;0.40;85.92;98996.52;1660197;86;21066;-78
2021/12/24 06:58:20;;;;;;;21.30;15.65;;;;;;;0.40;85.94;99004.98;1660207;86;21050;-78
2021/12/24 07:00:47;;;;;;;19.30;14.20;;;;;;;0.39;85.94;99003.29;1660205;84;21373;-78
2021/12/24 07:03:13;;;;;;;20.68;15.20;;;;;;;0.40;85.97;98994.81;1645757;86;26694;-77
2021/12/24 07:05:39;;;;;;;19.57;15.03;;;;;;;0.42;85.99;98998.20;1649741;87;20961;-77
2021/12/24 07:08:05;;;;;;;20.88;15.00;;;;;;;0.42;85.97;99007.11;1620806;87;20966;-77
2021/12/24 07:10:31;;;;;;;21.73;15.32;;;;;;;0.42;85.98;98999.48;1609663;88;20977;-77
2021/12/24 07:12:58;;;;;;;20.88;16.32;;;;;;;0.43;86.01;98990.16;1609789;88;21557;-77
2021/12/24 07:15:24;;;;;;;21.70;15.03;;;;;;;0.43;85.99;98998.62;1592595;88;20959;-77
2021/12/24 07:17:50;;;;;;;21.25;15.50;;;;;;;0.43;86.00;98975.74;1662212;85;20918;-77
2021/12/24 07:20:16;;;;;;;21.48;15.05;;;;;;;0.45;86.02;98991.00;1657253;86;20922;-77
2021/12/24 07:22:42;;;;;;;24.15;16.17;;;;;;;0.45;86.02;98996.08;1665490;85;20954;-77
2021/12/24 07:25:09;;;;;;;21.70;15.68;;;;;;;0.46;86.06;98995.23;1630437;87;20910;-77
2021/12/24 07:27:35;;;;;;;;;;;;;;;0.46;86.05;99002.44;1663570;85;20949;-77
2021/12/24 07:30:04;;;;;;;19.57;14.63;;;;;;;0.47;86.06;99000.74;1658226;85;20584;-77
2021/12/24 07:32:31;;;;;;;21.00;15.15;;;;;;;0.48;86.08;98999.89;1658502;86;20949;-77
2021/12/24 07:34:57;;;;;;;23.42;15.75;;;;;;;0.49;86.08;98995.23;1657084;86;20927;-77
2021/12/24 07:37:23;;;;;;;21.75;15.90;;;;;;;0.50;86.08;99000.73;1665775;85;20958;-76
2021/12/24 07:39:49;;;;;;;22.20;15.83;;;;;;;0.51;86.10;98990.56;1622164;88;21404;-76
2021/12/24 07:42:15;;;;;;;24.15;16.95;;;;;;;0.53;86.08;98985.44;1620505;88;21067;-77
2021/12/24 07:44:41;;;;;;;23.07;16.07;;;;;;;0.54;86.10;98980.78;1605116;87;21119;-77
2021/12/24 07:47:15;;;;;;;22.93;16.50;;;;;;;0.53;86.10;98980.36;1626150;87;21510;-76
2021/12/24 07:49:41;;;;;;;22.32;15.63;;;;;;;0.54;86.12;98981.63;1619494;88;21359;-77
2021/12/24 07:54:39;;;;;;;21.12;15.38;;;;;;;0.58;86.13;98973.14;1658057;86;20915;-77
2021/12/24 07:57:06;;;;;;;20.85;15.20;;;;;;;0.60;86.13;98981.61;1657436;86;20907;-76
2021/12/24 07:59:35;;;;;;;17.12;13.62;;;;;;;0.61;86.13;98980.77;1637795;87;20976;-76
2021/12/24 08:02:00;;;;;;;17.40;14.18;;;;;;;0.61;86.13;98965.50;1631556;86;21009;-76
2021/12/24 08:04:26;;;;;;;18.67;13.45;;;;;;;0.63;86.15;98957.45;1629278;86;21080;-76
2021/12/24 08:06:53;;;;;;;18.60;13.95;;;;;;;0.64;86.14;98942.61;1656788;86;21443;-76
2021/12/24 08:09:19;;;;;;;19.82;14.50;;;;;;;0.66;86.18;98948.96;1656398;86;21085;-76
2021/12/24 08:11:45;;;;;;;16.15;13.05;;;;;;;0.69;86.16;98942.59;1654572;85;21109;-76
2021/12/24 08:14:11;;;;;;;17.23;13.40;;;;;;;0.69;86.16;98940.47;1650974;86;21147;-76
2021/12/24 08:16:37;;;;;;;19.20;13.43;;;;;;;0.71;86.18;98945.98;1649911;85;21142;-76
2021/12/24 08:19:03;;;;;;;16.42;12.75;;;;;;;0.73;86.19;98947.24;1637989;86;21564;-76
2021/12/24 08:21:30;;;;;;;19.07;14.03;;;;;;;0.75;86.20;98942.58;1683811;84;21045;-76
2021/12/24 08:23:56;;;;;;;16.73;13.00;;;;;;;0.76;86.17;98945.54;1677139;84;21496;-76
2021/12/24 08:26:22;;;;;;;17.80;13.18;;;;;;;0.78;86.17;98949.34;1649520;86;20970;-76
2021/12/24 08:28:50;;;;;;;16.93;13.40;;;;;;;0.78;86.15;98941.29;1638798;86;21003;-76
2021/12/24 08:31:16;;;;;;;15.40;11.73;;;;;;;0.78;86.16;98951.47;1656984;85;20915;-76
2021/12/24 08:33:42;;;;;;;;;;;;;;;0.79;86.18;98947.22;1663069;85;20967;-76
2021/12/24 08:36:09;;;;;;;15.88;11.43;;;;;;;0.79;86.21;98951.89;1672950;85;20155;-76
2021/12/24 08:38:35;;;;;;;15.70;11.78;;;;;;;0.79;86.20;98944.26;1667976;85;20967;-76
2021/12/24 08:41:03;;;;;;;17.75;13.18;;;;;;;0.80;86.22;98938.74;1674175;85;20918;-76
2021/12/24 08:43:29;;;;;;;17.95;13.72;;;;;;;0.80;86.22;98931.11;1658073;84;20940;-78
2021/12/24 08:45:55;;;;;;;17.77;13.15;;;;;;;0.82;86.25;98930.67;1650121;86;21022;-77
2021/12/24 08:48:21;;;;;;;17.87;13.35;;;;;;;0.84;86.27;98932.79;1650413;85;21059;-77
2021/12/24 08:50:47;;;;;;;15.05;11.95;;;;;;;0.84;86.25;98932.36;1624890;87;21386;-77
2021/12/24 08:53:13;;;;;;;15.48;12.65;;;;;;;0.85;86.25;98930.66;1657765;86;20914;-77
2021/12/24 08:55:41;;;;;;;16.05;12.47;;;;;;;0.86;86.26;98919.21;1640882;86;26771;-77
2021/12/24 08:58:08;;;;;;;17.55;13.43;;;;;;;0.86;86.24;98909.46;1629007;87;20970;-77
2021/12/24 09:00:35;;;;;;;17.77;13.45;;;;;;;0.88;86.30;98912.84;1658674;86;25773;-77
2021/12/24 09:03:02;;;;;;;17.90;13.08;;;;;;;0.92;86.33;98913.25;1661580;86;21296;-77
2021/12/24 09:05:29;;;;;;;17.45;13.53;;;;;;;0.95;86.32;98910.27;1661992;84;20892;-77
2021/12/24 09:07:56;;;;;;;17.87;13.50;;;;;;;0.93;86.31;98911.13;1662037;86;20903;-77
2021/12/24 09:10:22;;;;;;;;;;;;;;;0.99;86.30;98919.58;1664931;84;20939;-77
2021/12/24 09:12:48;;;;;;;17.57;13.32;;;;;;;1.00;86.31;98919.16;1661970;86;20157;-77
2021/12/24 09:15:16;;;;;;;16.93;12.65;;;;;;;1.00;86.29;98907.70;1661915;86;20879;-77
2021/12/24 09:17:45;;;;;;;17.05;12.82;;;;;;;1.02;86.31;98898.78;1664880;84;20957;-77
2021/12/24 09:20:19;;;;;;;17.25;12.88;;;;;;;1.03;86.31;98914.05;1662907;84;21044;-76
2021/12/24 09:22:47;;;;;;;18.98;13.80;;;;;;;1.04;86.31;98902.98;1654567;85;21440;-76
2021/12/24 09:25:13;;;;;;;19.50;14.35;;;;;;;1.05;86.30;98905.09;1599912;87;20969;-76
2021/12/24 09:27:40;;;;;;;20.68;14.98;;;;;;;1.05;86.28;98902.55;1583226;89;20924;-76
2021/12/24 09:30:07;;;;;;;18.52;14.13;;;;;;;1.05;86.29;98893.65;1635029;87;20962;-76
2021/12/24 09:32:33;;;;;;;17.80;14.15;;;;;;;1.05;86.30;98883.04;1637415;86;20957;-76
2021/12/24 09:34:59;;;;;;;19.92;15.08;;;;;;;1.05;86.31;98879.22;1668699;85;20962;-76
2021/12/24 09:37:26;;;;;;;18.95;13.90;;;;;;;1.06;86.28;98878.37;1661781;86;20942;-77
2021/12/24 09:39:52;;;;;;;19.87;14.90;;;;;;;1.07;86.33;98877.52;1662139;86;20939;-77
2021/12/24 09:42:18;;;;;;;18.75;13.98;;;;;;;1.09;86.35;98872.41;1663094;85;20918;-77
2021/12/24 09:44:48;;;;;;;18.31;14.32;;;;;;;1.10;86.35;98867.31;1578060;86;10001080;-77
2021/12/24 09:47:14;;;;;;;18.93;14.10;;;;;;;1.11;86.45;98883.00;1669390;84;21521;-77
2021/12/24 09:49:40;;;;;;;21.00;15.43;;;;;;;1.11;86.31;98885.55;1655046;85;20995;-77
2021/12/24 09:52:08;;;;;;;17.77;13.75;;;;;;;1.09;86.31;98879.63;1653230;86;21070;-77
2021/12/24 09:54:34;;;;;;;19.30;14.37;;;;;;;1.09;86.32;98880.89;1589981;89;21584;-77
2021/12/24 09:57:01;;;;;;;19.47;14.43;;;;;;;1.08;86.33;98872.84;1604383;87;21090;-77
2021/12/24 09:59:29;;;;;;;21.10;15.32;;;;;;;1.08;86.35;98861.39;1659148;86;21341;-77
2021/12/24 10:01:59;;;;;;;23.25;15.78;;;;;;;1.10;86.39;98855.02;1660649;85;21552;-77
2021/12/24 10:04:30;;;;;;;26.45;17.60;;;;;;;1.11;86.41;98842.70;1658243;85;20919;-77
2021/12/24 10:07:06;;;;;;;23.15;15.83;;;;;;;1.13;86.42;98828.27;1656802;86;20946;-78
2021/12/24 10:09:36;;;;;;;;;;;;;;;1.17;86.45;98816.78;1661164;85;20867;-78
2021/12/24 10:12:07;;;;;;;24.35;15.38;;;;;;;1.21;86.49;98819.73;1655924;85;20128;-78
2021/12/24 10:14:42;;;;;;;31.65;18.87;;;;;;;1.25;86.45;98820.13;1629212;87;20928;-77
2021/12/24 10:17:22;;;;;;;39.63;22.48;;;;;;;1.27;86.45;98815.02;1636658;87;21462;-77
2021/12/24 10:19:53;;;;;;;35.10;20.77;;;;;;;1.28;86.43;98821.38;1631547;87;20919;-77
2021/12/24 10:22:21;;;;;;;28.12;17.85;;;;;;;1.30;86.43;98829.84;1649888;85;20910;-77
2021/12/24 10:25:08;;;;;;;26.15;16.55;;;;;;;1.30;86.39;98822.20;1623684;87;20965;-77
2021/12/24 10:27:35;;;;;;;18.17;13.85;;;;;;;1.30;86.42;98820.94;1654837;86;20926;-77
2021/12/24 10:30:26;;;;;;;20.23;14.30;;;;;;;1.31;86.42;98819.23;1658057;85;20961;-77
2021/12/24 10:32:55;;;;;;;21.60;14.35;;;;;;;1.31;86.45;98812.87;1657303;85;21372;-77
2021/12/24 10:35:27;;;;;;;18.65;13.83;;;;;;;1.30;86.40;98818.39;1608586;88;20959;-78
2021/12/24 10:38:19;;;;;;;18.85;13.78;;;;;;;1.28;86.41;98817.55;1606374;88;21496;-78
2021/12/24 10:40:59;;;;;;;19.65;13.48;;;;;;;1.28;86.43;98812.89;1654929;85;21443;-77
2021/12/24 10:43:33;;;;;;;19.30;13.90;;;;;;;1.26;86.43;98814.17;1657054;86;21447;-77
2021/12/24 10:46:15;;;;;;;17.40;12.43;;;;;;;1.25;86.44;98810.37;1657769;86;21399;-77
2021/12/24 10:49:01;;;;;;;16.02;11.60;;;;;;;1.22;86.44;98818.88;1635098;86;20914;-77
2021/12/24 10:51:53;;;;;;;18.37;13.28;;;;;;;1.23;86.44;98831.17;1621567;88;21421;-77
2021/12/24 10:54:06;;;;;;;18.90;12.80;;;;;;;1.21;86.45;98822.70;1619283;88;21487;-77
2021/12/24 10:56:33;;;;;;;16.50;11.95;;;;;;;1.21;86.48;98821.43;1622995;87;20906;-77
2021/12/24 10:58:59;;;;;;;15.60;11.55;;;;;;;1.21;86.47;98824.82;1656719;86;21947;-77
2021/12/24 11:01:25;;;;;;;17.95;12.10;;;;;;;1.20;86.48;98818.04;1638603;86;21680;-77
2021/12/24 11:03:51;;;;;;;17.32;12.28;;;;;;;1.19;86.47;98818.05;1624716;88;20937;-77
2021/12/24 11:06:19;;;;;;;16.95;11.75;;;;;;;1.18;86.49;98815.09;1654195;85;21503;-77
2021/12/24 11:08:55;;;;;;;16.50;12.35;;;;;;;1.19;86.49;98812.95;1653133;85;21030;-77
2021/12/24 11:11:22;;;;;;;19.15;12.28;;;;;;;1.20;86.53;98810.40;1654703;85;20895;-77
2021/12/24 11:13:48;;;;;;;17.90;12.43;;;;;;;1.21;86.55;98805.73;1665365;85;20939;-77
2021/12/24 11:16:20;;;;;;;18.65;11.93;;;;;;;1.23;86.54;98808.27;1658770;85;20888;-77
2021/12/24 11:19:01;;;;;;;15.45;10.70;;;;;;;1.24;86.52;98812.06;1667403;85;21380;-77
2021/12/24 11:21:30;;;;;;;18.55;12.63;;;;;;;1.24;86.53;98820.98;1654317;86;21600;-77
2021/12/24 11:23:56;;;;;;;19.65;13.53;;;;;;;1.25;86.53;98829.03;1654454;86;21346;-77
2021/12/24 11:26:34;;;;;;;27.85;16.10;;;;;;;1.25;86.49;98833.28;1654682;86;21451;-77
2021/12/24 11:29:00;;;;;;;44.95;20.05;;;;;;;1.24;86.52;98832.86;1654784;85;20958;-77
2021/12/24 11:31:29;;;;;;;57.30;23.67;;;;;;;1.23;86.51;98831.17;1655381;85;21582;-77
2021/12/24 11:33:58;;;;;;;66.60;27.55;;;;;;;1.24;86.54;98812.06;1662008;85;21523;-77
2021/12/24 11:36:26;;;;;;;58.73;25.95;;;;;;;1.25;86.56;98832.85;1663109;85;21447;-77
2021/12/24 11:38:57;;;;;;;77.90;31.95;;;;;;;1.25;86.49;98826.48;1655522;86;20942;-77
2021/12/24 11:41:30;;;;;;;67.92;27.35;;;;;;;1.25;86.54;98833.28;1654729;86;21391;-77
2021/12/24 11:43:58;;;;;;;44.27;19.98;;;;;;;1.25;86.52;98835.83;1656222;85;21371;-77
2021/12/24 11:46:26;;;;;;;29.05;14.38;;;;;;;1.22;86.52;98826.51;1671360;85;20964;-77
2021/12/24 11:48:56;;;;;;;13.53;9.70;;;;;;;1.21;86.53;98827.80;1663544;85;21478;-77
2021/12/24 11:51:33;;;;;;;13.65;8.98;;;;;;;1.20;86.54;98835.86;1643678;86;20947;-77
2021/12/24 11:54:04;;;;;;;10.28;8.23;;;;;;;1.19;86.54;98821.86;1653180;86;20986;-77
2021/12/24 11:56:44;;;;;;;8.85;7.17;;;;;;;1.19;86.58;98821.86;1654525;86;20970;-77
2021/12/24 11:59:10;;;;;;;9.38;6.85;;;;;;;1.19;86.56;98831.62;1655468;85;20922;-77
2021/12/24 12:01:41;;;;;;;8.13;7.10;;;;;;;1.20;86.53;98822.28;1658030;86;20871;-77
2021/12/24 12:04:16;;;;;;;9.40;6.85;;;;;;;1.19;86.56;98829.50;1661490;85;20961;-77
2021/12/24 12:06:43;;;;;;;7.55;6.53;;;;;;;1.19;86.59;98823.98;1653841;86;21023;-78
2021/12/24 12:09:12;;;;;;;7.25;6.55;;;;;;;1.20;86.59;98824.41;1653102;86;21079;-78
2021/12/24 12:11:41;;;;;;;7.67;6.87;;;;;;;1.19;86.61;98821.86;1659646;85;20947;-78
2021/12/24 12:14:21;;;;;;;7.95;7.15;;;;;;;1.20;86.61;98833.31;1671388;85;20925;-78
2021/12/24 12:16:55;;;;;;;7.25;6.37;;;;;;;1.21;86.63;98833.73;1661742;86;20886;-78
2021/12/24 12:22:18;;;;;;;7.50;6.08;;;;;;;1.24;86.67;98829.89;1679521;85;20951;-78
2021/12/24 12:24:57;;;;;;;7.37;6.30;;;;;;;1.28;86.69;98816.70;1683595;84;21452;-78
2021/12/24 12:27:44;;;;;;;6.75;5.70;;;;;;;1.27;86.59;98815.86;1683436;84;20935;-78
2021/12/24 12:30:41;;;;;;;6.30;5.70;;;;;;;1.28;86.60;98814.16;1671446;84;20918;-78
2021/12/24 12:33:15;;;;;;;5.20;4.65;;;;;;;1.28;86.61;98819.26;1658081;86;20939;-78
2021/12/24 12:35:57;;;;;;;6.10;5.00;;;;;;;1.27;86.61;98827.75;1663845;85;20947;-77
2021/12/24 12:38:39;;;;;;;5.85;4.92;;;;;;;1.28;86.61;98826.89;1660922;85;20938;-78
2021/12/24 12:41:32;;;;;;;6.28;5.08;;;;;;;1.28;86.62;98806.09;1659880;85;21162;-78
2021/12/24 12:44:08;;;;;;;5.45;4.62;;;;;;;1.30;86.64;98805.66;1648012;85;21161;-78
2021/12/24 12:46:39;;;;;;;5.83;5.05;;;;;;;1.32;86.65;98799.28;1653584;86;20936;-78
2021/12/24 12:49:08;;;;;;;6.42;4.97;;;;;;;1.35;86.69;98806.05;1655411;85;20946;-78
2021/12/24 12:51:56;;;;;;;5.42;4.83;;;;;;;1.37;86.71;98805.61;1657115;85;47835;-78
2021/12/24 12:54:39;;;;;;;6.62;4.58;;;;;;;1.38;86.68;98801.78;1661958;86;20874;-78
2021/12/24 12:57:25;;;;;;;5.53;4.75;;;;;;;1.38;86.63;98814.52;1661772;86;20930;-78
2021/12/24 13:00:19;;;;;;;4.78;4.28;;;;;;;1.34;86.59;98812.84;1659048;85;21114;-78
2021/12/24 13:03:07;;;;;;;4.28;3.87;;;;;;;1.32;86.63;98805.22;1610250;88;21147;-78
2021/12/24 13:05:45;;;;;;;5.08;3.70;;;;;;;1.30;86.62;98817.12;1552504;91;21123;-79
2021/12/24 13:08:22;;;;;;;4.97;4.30;;;;;;;1.27;86.65;98810.77;1552519;92;21242;-79
2021/12/24 13:11:03;;;;;;;5.78;4.53;;;;;;;1.26;86.63;98800.60;1555753;91;20921;-79
2021/12/24 13:13:32;;;;;;;4.00;3.60;;;;;;;1.23;86.62;98807.83;1553772;91;20935;-79